createdAt,value
2018-12-23T00:00:35.031Z,1011.91
2018-12-23T00:01:35.020Z,1011.90
2018-12-23T00:02:35.009Z,1011.92
2018-12-23T00:03:35.279Z,1011.95
2018-12-23T00:04:34.987Z,1011.92
2018-12-23T00:05:34.976Z,1011.94
2018-12-23T00:06:34.966Z,1011.94
2018-12-23T00:07:34.952Z,1011.97
2018-12-23T00:08:34.941Z,1011.99
2018-12-23T00:09:35.222Z,1012.03
2018-12-23T00:10:34.920Z,1012.00
2018-12-23T00:11:34.909Z,1012.00
2018-12-23T00:12:34.896Z,1011.99
2018-12-23T00:13:34.885Z,1012.04
2018-12-23T00:14:34.874Z,1012.10
2018-12-23T00:15:34.870Z,1012.18
2018-12-23T00:16:34.858Z,1012.13
2018-12-23T00:17:34.841Z,1012.18
2018-12-23T00:18:34.829Z,1012.20
2018-12-23T00:19:34.817Z,1012.20
2018-12-23T00:20:34.808Z,1012.29
2018-12-23T00:21:34.802Z,1012.26
2018-12-23T00:22:34.784Z,1012.27
2018-12-23T00:23:34.773Z,1012.30
2018-12-23T00:24:34.761Z,1012.29
2018-12-23T00:25:34.751Z,1012.30
2018-12-23T00:26:34.738Z,1012.35
2018-12-23T00:27:34.733Z,1012.32
2018-12-23T00:28:34.717Z,1012.37
2018-12-23T00:29:34.704Z,1012.32
2018-12-23T00:30:34.694Z,1012.32
2018-12-23T00:31:34.688Z,1012.33
2018-12-23T00:32:34.671Z,1012.32
2018-12-23T00:33:34.672Z,1012.36
2018-12-23T00:34:34.648Z,1012.40
2018-12-23T00:35:34.637Z,1012.39
2018-12-23T00:36:34.629Z,1012.40
2018-12-23T00:37:34.617Z,1012.44
2018-12-23T00:38:34.605Z,1012.45
2018-12-23T00:39:34.599Z,1012.51
2018-12-23T00:40:34.581Z,1012.49
2018-12-23T00:41:36.669Z,1012.48
2018-12-23T00:42:34.559Z,1012.51
2018-12-23T00:43:34.548Z,1012.53
2018-12-23T00:44:34.536Z,1012.55
2018-12-23T00:45:34.532Z,1012.57
2018-12-23T00:46:34.516Z,1012.57
2018-12-23T00:47:34.503Z,1012.61
2018-12-23T00:48:34.490Z,1012.57
2018-12-23T00:49:34.479Z,1012.62
2018-12-23T00:50:34.468Z,1012.57
2018-12-23T00:51:34.464Z,1012.62
2018-12-23T00:52:34.446Z,1012.60
2018-12-23T00:53:34.435Z,1012.62
2018-12-23T00:54:34.424Z,1012.62
2018-12-23T00:55:34.411Z,1012.64
2018-12-23T00:56:34.400Z,1012.64
2018-12-23T00:57:34.666Z,1012.66
2018-12-23T00:58:34.378Z,1012.65
2018-12-23T00:59:34.366Z,1012.66
2018-12-23T01:00:34.356Z,1012.65
2018-12-23T01:01:34.346Z,1012.67
2018-12-23T01:02:34.333Z,1012.70
2018-12-23T01:03:34.648Z,1012.72
2018-12-23T01:04:34.310Z,1012.74
2018-12-23T01:05:34.299Z,1012.73
2018-12-23T01:06:34.288Z,1012.77
2018-12-23T01:07:34.276Z,1012.77
2018-12-23T01:08:34.266Z,1012.84
2018-12-23T01:09:36.211Z,1012.85
2018-12-23T01:10:34.246Z,1012.88
2018-12-23T01:11:34.233Z,1012.90
2018-12-23T01:12:34.222Z,1012.90
2018-12-23T01:13:34.209Z,1012.93
2018-12-23T01:14:34.199Z,1012.95
2018-12-23T01:15:34.194Z,1013.03
2018-12-23T01:16:34.175Z,1013.04
2018-12-23T01:17:34.165Z,1013.09
2018-12-23T01:18:34.152Z,1013.14
2018-12-23T01:19:34.142Z,1013.17
2018-12-23T01:20:34.130Z,1013.18
2018-12-23T01:21:34.128Z,1013.19
2018-12-23T01:22:34.109Z,1013.18
2018-12-23T01:23:34.097Z,1013.17
2018-12-23T01:24:34.085Z,1013.15
2018-12-23T01:25:34.075Z,1013.08
2018-12-23T01:26:34.063Z,1013.11
2018-12-23T01:27:34.065Z,1013.17
2018-12-23T01:28:34.041Z,1013.20
2018-12-23T01:29:34.032Z,1013.21
2018-12-23T01:30:34.023Z,1013.18
2018-12-23T01:31:34.006Z,1013.16
2018-12-23T01:32:33.996Z,1013.15
2018-12-23T01:33:33.995Z,1013.20
2018-12-23T01:34:37.174Z,1013.18
2018-12-23T01:35:37.268Z,1013.16
2018-12-23T01:36:33.951Z,1013.20
2018-12-23T01:37:33.939Z,1013.17
2018-12-23T01:38:33.928Z,1013.15
2018-12-23T01:39:34.219Z,1013.15
2018-12-23T01:40:33.908Z,1013.16
2018-12-23T01:41:33.893Z,1013.22
2018-12-23T01:42:33.882Z,1013.16
2018-12-23T01:43:33.871Z,1013.17
2018-12-23T01:44:33.860Z,1013.13
2018-12-23T01:45:33.869Z,1013.18
2018-12-23T01:46:33.838Z,1013.19
2018-12-23T01:47:33.826Z,1013.14
2018-12-23T01:48:33.814Z,1013.19
2018-12-23T01:49:33.805Z,1013.21
2018-12-23T01:50:33.791Z,1013.26
2018-12-23T01:51:34.058Z,1013.26
2018-12-23T01:52:33.769Z,1013.25
2018-12-23T01:53:33.758Z,1013.24
2018-12-23T01:54:33.747Z,1013.27
2018-12-23T01:55:33.735Z,1013.26
2018-12-23T01:56:33.733Z,1013.29
2018-12-23T01:57:33.721Z,1013.29
2018-12-23T01:58:33.703Z,1013.28
2018-12-23T01:59:33.690Z,1013.28
2018-12-23T02:00:33.678Z,1013.25
2018-12-23T02:01:33.674Z,1013.26
2018-12-23T02:02:33.657Z,1013.28
2018-12-23T02:03:33.972Z,1013.30
2018-12-23T02:04:33.637Z,1013.30
2018-12-23T02:05:33.623Z,1013.31
2018-12-23T02:06:33.613Z,1013.35
2018-12-23T02:07:33.601Z,1013.33
2018-12-23T02:08:33.590Z,1013.36
2018-12-23T02:09:33.587Z,1013.39
2018-12-23T02:10:33.566Z,1013.40
2018-12-23T02:11:33.556Z,1013.37
2018-12-23T02:12:33.543Z,1013.42
2018-12-23T02:13:33.533Z,1013.38
2018-12-23T02:14:33.522Z,1013.38
2018-12-23T02:15:33.518Z,1013.38
2018-12-23T02:16:33.499Z,1013.36
2018-12-23T02:17:33.489Z,1013.37
2018-12-23T02:18:33.476Z,1013.37
2018-12-23T02:19:33.466Z,1013.37
2018-12-23T02:20:33.453Z,1013.38
2018-12-23T02:21:33.453Z,1013.35
2018-12-23T02:22:33.430Z,1013.40
2018-12-23T02:23:33.420Z,1013.36
2018-12-23T02:24:33.409Z,1013.41
2018-12-23T02:25:33.399Z,1013.38
2018-12-23T02:26:33.387Z,1013.48
2018-12-23T02:27:33.667Z,1013.47
2018-12-23T02:28:33.368Z,1013.49
2018-12-23T02:29:33.353Z,1013.49
2018-12-23T02:30:33.343Z,1013.48
2018-12-23T02:31:33.331Z,1013.49
2018-12-23T02:32:33.320Z,1013.46
2018-12-23T02:33:33.644Z,1013.49
2018-12-23T02:34:33.297Z,1013.50
2018-12-23T02:35:33.286Z,1013.44
2018-12-23T02:36:33.274Z,1013.48
2018-12-23T02:37:33.262Z,1013.45
2018-12-23T02:38:33.251Z,1013.50
2018-12-23T02:39:33.533Z,1013.46
2018-12-23T02:40:33.228Z,1013.50
2018-12-23T02:41:33.225Z,1013.50
2018-12-23T02:42:33.205Z,1013.47
2018-12-23T02:43:33.196Z,1013.44
2018-12-23T02:44:33.184Z,1013.45
2018-12-23T02:45:33.461Z,1013.45
2018-12-23T02:46:33.162Z,1013.49
2018-12-23T02:47:33.150Z,1013.53
2018-12-23T02:48:33.137Z,1013.55
2018-12-23T02:49:33.129Z,1013.53
2018-12-23T02:50:33.117Z,1013.54
2018-12-23T02:51:33.111Z,1013.54
2018-12-23T02:52:33.093Z,1013.53
2018-12-23T02:53:33.081Z,1013.54
2018-12-23T02:54:33.070Z,1013.56
2018-12-23T02:55:33.063Z,1013.55
2018-12-23T02:56:33.047Z,1013.53
2018-12-23T02:57:33.044Z,1013.53
2018-12-23T02:58:33.026Z,1013.53
2018-12-23T02:59:33.014Z,1013.50
2018-12-23T03:00:33.002Z,1013.50
2018-12-23T03:01:32.991Z,1013.46
2018-12-23T03:02:32.980Z,1013.41
2018-12-23T03:03:32.977Z,1013.42
2018-12-23T03:04:32.958Z,1013.46
2018-12-23T03:05:32.953Z,1013.41
2018-12-23T03:06:32.936Z,1013.41
2018-12-23T03:07:32.923Z,1013.38
2018-12-23T03:08:32.911Z,1013.35
2018-12-23T03:09:33.173Z,1013.33
2018-12-23T03:10:32.888Z,1013.40
2018-12-23T03:11:32.878Z,1013.39
2018-12-23T03:12:32.868Z,1013.46
2018-12-23T03:13:32.855Z,1013.43
2018-12-23T03:14:32.846Z,1013.44
2018-12-23T03:15:33.109Z,1013.43
2018-12-23T03:16:32.822Z,1013.38
2018-12-23T03:17:32.813Z,1013.35
2018-12-23T03:18:32.799Z,1013.36
2018-12-23T03:19:32.787Z,1013.37
2018-12-23T03:20:32.782Z,1013.42
2018-12-23T03:21:32.782Z,1013.39
2018-12-23T03:22:32.754Z,1013.41
2018-12-23T03:23:32.744Z,1013.43
2018-12-23T03:24:32.731Z,1013.38
2018-12-23T03:25:32.721Z,1013.37
2018-12-23T03:26:32.709Z,1013.38
2018-12-23T03:27:32.707Z,1013.35
2018-12-23T03:28:32.688Z,1013.35
2018-12-23T03:29:32.675Z,1013.30
2018-12-23T03:30:32.667Z,1013.24
2018-12-23T03:31:32.654Z,1013.21
2018-12-23T03:32:32.642Z,1013.18
2018-12-23T03:33:32.916Z,1013.19
2018-12-23T03:34:32.620Z,1013.21
2018-12-23T03:35:32.608Z,1013.21
2018-12-23T03:36:32.599Z,1013.23
2018-12-23T03:37:32.585Z,1013.22
2018-12-23T03:38:32.575Z,1013.24
2018-12-23T03:39:32.843Z,1013.25
2018-12-23T03:40:32.552Z,1013.24
2018-12-23T03:41:32.544Z,1013.20
2018-12-23T03:42:32.534Z,1013.28
2018-12-23T03:43:32.518Z,1013.24
2018-12-23T03:44:32.508Z,1013.20
2018-12-23T03:45:32.813Z,1013.23
2018-12-23T03:46:32.484Z,1013.26
2018-12-23T03:47:32.472Z,1013.22
2018-12-23T03:48:32.466Z,1013.22
2018-12-23T03:49:32.450Z,1013.24
2018-12-23T03:50:32.440Z,1013.24
2018-12-23T03:51:32.437Z,1013.24
2018-12-23T03:52:32.419Z,1013.20
2018-12-23T03:53:32.406Z,1013.12
2018-12-23T03:54:32.395Z,1013.16
2018-12-23T03:55:32.383Z,1013.12
2018-12-23T03:56:32.371Z,1013.13
2018-12-23T03:57:32.370Z,1013.19
2018-12-23T03:58:32.349Z,1013.23
2018-12-23T03:59:32.339Z,1013.24
2018-12-23T04:00:32.327Z,1013.18
2018-12-23T04:01:32.315Z,1013.15
2018-12-23T04:02:32.305Z,1013.16
2018-12-23T04:03:32.301Z,1013.08
2018-12-23T04:04:32.282Z,1013.04
2018-12-23T04:05:32.269Z,1013.09
2018-12-23T04:06:32.259Z,1013.06
2018-12-23T04:07:32.249Z,1013.05
2018-12-23T04:08:32.247Z,1013.07
2018-12-23T04:09:32.237Z,1013.07
2018-12-23T04:10:32.214Z,1013.01
2018-12-23T04:11:32.202Z,1013.06
2018-12-23T04:12:32.194Z,1013.02
2018-12-23T04:13:32.184Z,1013.06
2018-12-23T04:14:32.170Z,1013.04
2018-12-23T04:15:32.170Z,1013.05
2018-12-23T04:16:32.145Z,1013.08
2018-12-23T04:17:32.134Z,1013.06
2018-12-23T04:18:32.124Z,1013.07
2018-12-23T04:19:32.121Z,1013.08
2018-12-23T04:20:32.100Z,1013.07
2018-12-23T04:21:32.112Z,1013.07
2018-12-23T04:22:32.077Z,1013.02
2018-12-23T04:23:32.067Z,1013.02
2018-12-23T04:24:32.054Z,1012.99
2018-12-23T04:25:32.045Z,1013.04
2018-12-23T04:26:32.033Z,1012.98
2018-12-23T04:27:32.307Z,1012.96
2018-12-23T04:28:32.010Z,1012.93
2018-12-23T04:29:31.999Z,1012.97
2018-12-23T04:30:31.989Z,1012.97
2018-12-23T04:31:31.979Z,1012.97
2018-12-23T04:32:31.964Z,1012.99
2018-12-23T04:33:32.230Z,1012.99
2018-12-23T04:34:31.942Z,1013.00
2018-12-23T04:35:31.931Z,1013.00
2018-12-23T04:36:34.143Z,1013.01
2018-12-23T04:37:31.909Z,1013.02
2018-12-23T04:38:31.897Z,1013.06
2018-12-23T04:39:31.895Z,1013.01
2018-12-23T04:40:31.881Z,1012.97
2018-12-23T04:41:31.867Z,1012.96
2018-12-23T04:42:31.874Z,1012.98
2018-12-23T04:43:31.841Z,1012.98
2018-12-23T04:44:31.830Z,1012.96
2018-12-23T04:45:31.826Z,1012.97
2018-12-23T04:46:31.807Z,1013.01
2018-12-23T04:47:31.796Z,1012.94
2018-12-23T04:48:31.784Z,1012.99
2018-12-23T04:49:31.773Z,1012.98
2018-12-23T04:50:31.768Z,1013.00
2018-12-23T04:51:32.044Z,1012.96
2018-12-23T04:52:31.739Z,1012.98
2018-12-23T04:53:31.727Z,1012.94
2018-12-23T04:54:31.716Z,1013.00
2018-12-23T04:55:31.705Z,1012.94
2018-12-23T04:56:31.693Z,1013.01
2018-12-23T04:57:31.688Z,1012.98
2018-12-23T04:58:31.763Z,1012.98
2018-12-23T04:59:31.659Z,1013.01
2018-12-23T05:00:31.652Z,1013.05
2018-12-23T05:01:31.636Z,1013.03
2018-12-23T05:02:31.625Z,1013.03
2018-12-23T05:03:31.623Z,1013.01
2018-12-23T05:04:31.603Z,1013.00
2018-12-23T05:05:31.592Z,1013.01
2018-12-23T05:06:31.588Z,1012.98
2018-12-23T05:07:31.570Z,1012.97
2018-12-23T05:08:31.581Z,1013.00
2018-12-23T05:09:31.554Z,1012.99
2018-12-23T05:10:31.536Z,1012.97
2018-12-23T05:11:31.524Z,1012.94
2018-12-23T05:12:31.512Z,1012.94
2018-12-23T05:13:31.501Z,1012.90
2018-12-23T05:14:31.491Z,1012.93
2018-12-23T05:15:31.488Z,1012.96
2018-12-23T05:16:31.471Z,1012.97
2018-12-23T05:17:31.457Z,1012.95
2018-12-23T05:18:31.445Z,1012.92
2018-12-23T05:19:31.437Z,1012.91
2018-12-23T05:20:31.424Z,1012.88
2018-12-23T05:21:31.737Z,1012.92
2018-12-23T05:22:31.400Z,1012.89
2018-12-23T05:23:31.389Z,1012.86
2018-12-23T05:24:31.379Z,1012.86
2018-12-23T05:25:31.366Z,1012.87
2018-12-23T05:26:31.453Z,1012.86
2018-12-23T05:27:31.351Z,1012.90
2018-12-23T05:28:31.334Z,1012.91
2018-12-23T05:29:31.322Z,1012.92
2018-12-23T05:30:31.311Z,1012.91
2018-12-23T05:31:31.307Z,1012.89
2018-12-23T05:32:31.288Z,1012.90
2018-12-23T05:33:31.283Z,1012.91
2018-12-23T05:34:31.266Z,1012.90
2018-12-23T05:35:31.252Z,1012.95
2018-12-23T05:36:31.243Z,1012.91
2018-12-23T05:37:31.230Z,1012.86
2018-12-23T05:38:31.219Z,1012.90
2018-12-23T05:39:31.485Z,1012.93
2018-12-23T05:40:31.196Z,1012.88
2018-12-23T05:41:31.185Z,1012.82
2018-12-23T05:42:31.175Z,1012.82
2018-12-23T05:43:31.163Z,1012.88
2018-12-23T05:44:31.157Z,1012.82
2018-12-23T05:45:31.472Z,1012.83
2018-12-23T05:46:31.131Z,1012.83
2018-12-23T05:47:31.118Z,1012.80
2018-12-23T05:48:31.106Z,1012.82
2018-12-23T05:49:31.097Z,1012.85
2018-12-23T05:50:31.083Z,1012.88
2018-12-23T05:51:31.368Z,1012.86
2018-12-23T05:52:31.065Z,1012.92
2018-12-23T05:53:31.048Z,1012.90
2018-12-23T05:54:31.038Z,1012.92
2018-12-23T05:55:31.031Z,1012.94
2018-12-23T05:56:31.016Z,1012.95
2018-12-23T05:57:31.014Z,1012.96
2018-12-23T05:58:30.992Z,1012.96
2018-12-23T05:59:30.981Z,1012.99
2018-12-23T06:00:30.971Z,1012.94
2018-12-23T06:01:30.958Z,1012.92
2018-12-23T06:02:30.947Z,1012.92
2018-12-23T06:03:30.943Z,1012.94
2018-12-23T06:04:30.925Z,1012.97
2018-12-23T06:05:30.913Z,1012.93
2018-12-23T06:06:30.901Z,1012.95
2018-12-23T06:07:30.891Z,1013.00
2018-12-23T06:08:30.879Z,1013.03
2018-12-23T06:09:30.877Z,1013.06
2018-12-23T06:10:30.858Z,1013.03
2018-12-23T06:11:30.848Z,1013.06
2018-12-23T06:12:30.836Z,1013.03
2018-12-23T06:13:30.824Z,1013.06
2018-12-23T06:14:30.813Z,1013.09
2018-12-23T06:15:30.808Z,1013.06
2018-12-23T06:16:30.790Z,1013.06
2018-12-23T06:17:30.777Z,1013.08
2018-12-23T06:18:30.766Z,1013.04
2018-12-23T06:19:30.758Z,1013.06
2018-12-23T06:20:30.743Z,1013.03
2018-12-23T06:21:31.006Z,1013.05
2018-12-23T06:22:30.721Z,1013.02
2018-12-23T06:23:30.710Z,1013.07
2018-12-23T06:24:30.708Z,1012.97
2018-12-23T06:25:30.691Z,1013.03
2018-12-23T06:26:30.695Z,1013.04
2018-12-23T06:27:30.987Z,1013.06
2018-12-23T06:28:30.652Z,1012.97
2018-12-23T06:29:30.642Z,1012.99
2018-12-23T06:30:30.631Z,1013.05
2018-12-23T06:31:30.621Z,1013.00
2018-12-23T06:32:30.609Z,1012.95
2018-12-23T06:33:30.881Z,1012.93
2018-12-23T06:34:30.586Z,1012.95
2018-12-23T06:35:30.574Z,1012.94
2018-12-23T06:36:30.563Z,1012.94
2018-12-23T06:37:30.554Z,1012.95
2018-12-23T06:38:30.540Z,1012.94
2018-12-23T06:39:30.796Z,1012.94
2018-12-23T06:40:30.517Z,1012.99
2018-12-23T06:41:30.505Z,1012.92
2018-12-23T06:42:30.496Z,1012.97
2018-12-23T06:43:30.485Z,1012.92
2018-12-23T06:44:30.475Z,1012.94
2018-12-23T06:45:30.468Z,1012.91
2018-12-23T06:46:30.454Z,1012.93
2018-12-23T06:47:30.438Z,1012.94
2018-12-23T06:48:30.427Z,1012.95
2018-12-23T06:49:30.415Z,1012.94
2018-12-23T06:50:30.404Z,1012.95
2018-12-23T06:51:30.400Z,1012.96
2018-12-23T06:52:30.381Z,1012.91
2018-12-23T06:53:30.370Z,1012.91
2018-12-23T06:54:30.359Z,1012.95
2018-12-23T06:55:30.432Z,1012.91
2018-12-23T06:56:30.336Z,1012.93
2018-12-23T06:57:30.334Z,1012.95
2018-12-23T06:58:30.315Z,1012.90
2018-12-23T06:59:30.302Z,1012.96
2018-12-23T07:00:30.291Z,1012.99
2018-12-23T07:01:30.279Z,1013.00
2018-12-23T07:02:30.270Z,1013.02
2018-12-23T07:03:30.265Z,1013.00
2018-12-23T07:04:30.246Z,1012.94
2018-12-23T07:05:30.235Z,1012.94
2018-12-23T07:06:30.223Z,1012.91
2018-12-23T07:07:30.212Z,1012.85
2018-12-23T07:08:30.202Z,1012.89
2018-12-23T07:09:30.461Z,1012.83
2018-12-23T07:10:30.178Z,1012.86
2018-12-23T07:11:30.167Z,1012.90
2018-12-23T07:12:30.156Z,1012.89
2018-12-23T07:13:30.144Z,1012.89
2018-12-23T07:14:30.132Z,1012.87
2018-12-23T07:15:30.411Z,1012.86
2018-12-23T07:16:30.111Z,1012.87
2018-12-23T07:17:30.098Z,1012.83
2018-12-23T07:18:30.089Z,1012.83
2018-12-23T07:19:30.076Z,1012.79
2018-12-23T07:20:30.065Z,1012.80
2018-12-23T07:21:30.380Z,1012.82
2018-12-23T07:22:30.047Z,1012.83
2018-12-23T07:23:30.034Z,1012.81
2018-12-23T07:24:30.020Z,1012.83
2018-12-23T07:25:30.014Z,1012.79
2018-12-23T07:26:29.998Z,1012.76
2018-12-23T07:27:30.304Z,1012.79
2018-12-23T07:28:29.975Z,1012.80
2018-12-23T07:29:29.963Z,1012.77
2018-12-23T07:30:29.951Z,1012.76
2018-12-23T07:31:29.941Z,1012.76
2018-12-23T07:32:29.930Z,1012.77
2018-12-23T07:33:29.929Z,1012.75
2018-12-23T07:34:29.907Z,1012.79
2018-12-23T07:35:29.896Z,1012.80
2018-12-23T07:36:29.884Z,1012.74
2018-12-23T07:37:29.876Z,1012.73
2018-12-23T07:38:29.862Z,1012.77
2018-12-23T07:39:29.856Z,1012.78
2018-12-23T07:40:29.839Z,1012.76
2018-12-23T07:41:29.829Z,1012.78
2018-12-23T07:42:29.819Z,1012.82
2018-12-23T07:43:29.806Z,1012.79
2018-12-23T07:44:29.793Z,1012.82
2018-12-23T07:45:29.789Z,1012.84
2018-12-23T07:46:29.771Z,1012.81
2018-12-23T07:47:29.760Z,1012.80
2018-12-23T07:48:29.749Z,1012.83
2018-12-23T07:49:29.737Z,1012.84
2018-12-23T07:50:29.725Z,1012.85
2018-12-23T07:51:29.722Z,1012.86
2018-12-23T07:52:29.704Z,1012.88
2018-12-23T07:53:29.726Z,1012.92
2018-12-23T07:54:29.684Z,1012.94
2018-12-23T07:55:29.668Z,1013.00
2018-12-23T07:56:29.659Z,1013.01
2018-12-23T07:57:29.654Z,1012.98
2018-12-23T07:58:29.636Z,1013.00
2018-12-23T07:59:29.625Z,1013.00
2018-12-23T08:00:29.614Z,1012.97
2018-12-23T08:01:29.602Z,1013.02
2018-12-23T08:02:29.590Z,1013.02
2018-12-23T08:03:29.586Z,1013.04
2018-12-23T08:04:29.571Z,1013.03
2018-12-23T08:05:29.556Z,1013.07
2018-12-23T08:06:29.547Z,1013.02
2018-12-23T08:07:36.090Z,1012.96
2018-12-23T08:08:30.830Z,1013.02
2018-12-23T08:09:29.512Z,1013.01
2018-12-23T08:10:29.499Z,1012.99
2018-12-23T08:11:29.489Z,1012.98
2018-12-23T08:12:29.478Z,1013.00
2018-12-23T08:13:29.466Z,1012.97
2018-12-23T08:14:29.788Z,1012.97
2018-12-23T08:15:29.444Z,1012.92
2018-12-23T08:16:29.432Z,1012.92
2018-12-23T08:17:29.420Z,1012.96
2018-12-23T08:18:29.411Z,1012.95
2018-12-23T08:19:29.398Z,1012.95
2018-12-23T08:20:29.659Z,1012.94
2018-12-23T08:21:29.376Z,1012.97
2018-12-23T08:22:29.365Z,1012.94
2018-12-23T08:23:29.353Z,1012.96
2018-12-23T08:24:29.342Z,1012.95
2018-12-23T08:25:35.541Z,1012.95
2018-12-23T08:26:30.603Z,1012.97
2018-12-23T08:27:29.314Z,1012.98
2018-12-23T08:28:29.297Z,1012.97
2018-12-23T08:29:29.285Z,1012.94
2018-12-23T08:30:29.273Z,1012.90
2018-12-23T08:31:29.263Z,1012.93
2018-12-23T08:32:29.260Z,1012.91
2018-12-23T08:33:29.240Z,1012.88
2018-12-23T08:34:29.232Z,1012.95
2018-12-23T08:35:29.219Z,1012.92
2018-12-23T08:36:29.207Z,1012.92
2018-12-23T08:37:29.195Z,1012.90
2018-12-23T08:38:29.192Z,1012.87
2018-12-23T08:39:29.172Z,1012.94
2018-12-23T08:40:29.161Z,1012.90
2018-12-23T08:41:29.151Z,1012.96
2018-12-23T08:42:29.140Z,1012.96
2018-12-23T08:43:29.128Z,1012.93
2018-12-23T08:44:29.123Z,1012.96
2018-12-23T08:45:29.106Z,1012.91
2018-12-23T08:46:29.094Z,1012.94
2018-12-23T08:47:29.084Z,1012.96
2018-12-23T08:48:29.072Z,1012.95
2018-12-23T08:49:29.061Z,1012.97
2018-12-23T08:50:29.057Z,1012.97
2018-12-23T08:51:29.040Z,1012.98
2018-12-23T08:52:29.028Z,1012.99
2018-12-23T08:53:29.017Z,1012.99
2018-12-23T08:54:29.005Z,1013.04
2018-12-23T08:55:28.996Z,1013.07
2018-12-23T08:56:28.989Z,1013.02
2018-12-23T08:57:28.970Z,1012.99
2018-12-23T08:58:28.958Z,1013.00
2018-12-23T08:59:29.053Z,1013.01
2018-12-23T09:00:28.937Z,1012.99
2018-12-23T09:01:28.926Z,1013.03
2018-12-23T09:02:29.194Z,1013.02
2018-12-23T09:03:28.904Z,1013.07
2018-12-23T09:04:28.894Z,1013.06
2018-12-23T09:05:28.879Z,1013.06
2018-12-23T09:06:28.869Z,1013.04
2018-12-23T09:07:28.863Z,1013.06
2018-12-23T09:08:29.139Z,1013.03
2018-12-23T09:09:28.835Z,1012.99
2018-12-23T09:10:28.830Z,1013.00
2018-12-23T09:11:28.811Z,1013.04
2018-12-23T09:12:28.802Z,1013.03
2018-12-23T09:13:28.789Z,1013.04
2018-12-23T09:14:29.105Z,1013.00
2018-12-23T09:15:28.769Z,1013.04
2018-12-23T09:16:28.756Z,1012.99
2018-12-23T09:17:28.744Z,1013.01
2018-12-23T09:18:28.733Z,1012.96
2018-12-23T09:19:28.723Z,1012.98
2018-12-23T09:20:28.988Z,1012.97
2018-12-23T09:21:28.702Z,1012.93
2018-12-23T09:22:28.688Z,1012.95
2018-12-23T09:23:28.675Z,1012.99
2018-12-23T09:24:28.665Z,1012.96
2018-12-23T09:25:28.654Z,1012.92
2018-12-23T09:26:28.648Z,1012.89
2018-12-23T09:27:28.631Z,1012.88
2018-12-23T09:28:28.622Z,1012.94
2018-12-23T09:29:28.609Z,1012.89
2018-12-23T09:30:28.607Z,1012.91
2018-12-23T09:31:28.585Z,1012.92
2018-12-23T09:32:28.583Z,1012.94
2018-12-23T09:33:28.563Z,1012.90
2018-12-23T09:34:28.556Z,1012.92
2018-12-23T09:35:28.541Z,1012.95
2018-12-23T09:36:28.532Z,1012.90
2018-12-23T09:37:28.518Z,1012.90
2018-12-23T09:38:28.514Z,1012.98
2018-12-23T09:39:28.496Z,1012.95
2018-12-23T09:40:28.485Z,1012.99
2018-12-23T09:41:28.473Z,1012.90
2018-12-23T09:42:28.464Z,1012.94
2018-12-23T09:43:28.451Z,1012.93
2018-12-23T09:44:28.724Z,1012.91
2018-12-23T09:45:28.457Z,1012.89
2018-12-23T09:46:28.416Z,1012.89
2018-12-23T09:47:28.406Z,1012.91
2018-12-23T09:48:28.394Z,1012.88
2018-12-23T09:49:28.383Z,1012.84
2018-12-23T09:50:28.664Z,1012.83
2018-12-23T09:51:28.360Z,1012.86
2018-12-23T09:52:28.349Z,1012.92
2018-12-23T09:53:28.339Z,1012.90
2018-12-23T09:54:28.325Z,1012.90
2018-12-23T09:55:28.314Z,1012.92
2018-12-23T09:56:28.589Z,1012.89
2018-12-23T09:57:28.291Z,1012.91
2018-12-23T09:58:28.281Z,1012.83
2018-12-23T09:59:28.270Z,1012.84
2018-12-23T10:00:28.258Z,1012.82
2018-12-23T10:01:28.247Z,1012.84
2018-12-23T10:02:28.521Z,1012.83
2018-12-23T10:03:30.905Z,1012.82
2018-12-23T10:04:28.213Z,1012.77
2018-12-23T10:05:28.202Z,1012.76
2018-12-23T10:06:28.190Z,1012.84
2018-12-23T10:07:28.179Z,1012.76
2018-12-23T10:08:28.174Z,1012.72
2018-12-23T10:09:28.156Z,1012.75
2018-12-23T10:10:28.607Z,1012.74
2018-12-23T10:11:28.135Z,1012.76
2018-12-23T10:12:28.124Z,1012.75
2018-12-23T10:13:28.116Z,1012.73
2018-12-23T10:14:28.116Z,1012.71
2018-12-23T10:15:28.090Z,1012.68
2018-12-23T10:16:28.079Z,1012.64
2018-12-23T10:17:28.068Z,1012.62
2018-12-23T10:18:28.055Z,1012.62
2018-12-23T10:19:28.045Z,1012.61
2018-12-23T10:20:28.040Z,1012.60
2018-12-23T10:21:28.021Z,1012.57
2018-12-23T10:22:28.011Z,1012.58
2018-12-23T10:23:27.999Z,1012.56
2018-12-23T10:24:27.987Z,1012.47
2018-12-23T10:25:27.976Z,1012.55
2018-12-23T10:26:27.974Z,1012.53
2018-12-23T10:27:27.954Z,1012.55
2018-12-23T10:28:27.941Z,1012.46
2018-12-23T10:29:28.535Z,1012.49
2018-12-23T10:30:27.919Z,1012.47
2018-12-23T10:31:27.908Z,1012.42
2018-12-23T10:32:28.189Z,1012.41
2018-12-23T10:33:27.885Z,1012.42
2018-12-23T10:34:27.875Z,1012.37
2018-12-23T10:35:27.865Z,1012.32
2018-12-23T10:36:27.852Z,1012.34
2018-12-23T10:37:27.840Z,1012.39
2018-12-23T10:38:28.113Z,1012.34
2018-12-23T10:39:27.818Z,1012.29
2018-12-23T10:40:27.807Z,1012.27
2018-12-23T10:41:27.798Z,1012.20
2018-12-23T10:42:27.783Z,1012.17
2018-12-23T10:43:27.772Z,1012.13
2018-12-23T10:44:28.186Z,1012.13
2018-12-23T10:45:27.750Z,1012.14
2018-12-23T10:46:27.739Z,1012.11
2018-12-23T10:47:27.727Z,1012.10
2018-12-23T10:48:28.043Z,1012.17
2018-12-23T10:49:27.705Z,1012.14
2018-12-23T10:50:27.982Z,1012.08
2018-12-23T10:51:27.684Z,1012.10
2018-12-23T10:52:27.673Z,1012.10
2018-12-23T10:53:27.661Z,1012.04
2018-12-23T10:54:27.649Z,1012.03
2018-12-23T10:55:27.637Z,1012.03
2018-12-23T10:56:27.635Z,1012.07
2018-12-23T10:57:27.614Z,1012.10
2018-12-23T10:58:27.603Z,1012.07
2018-12-23T10:59:27.591Z,1012.07
2018-12-23T11:00:27.582Z,1012.06
2018-12-23T11:01:27.570Z,1012.06
2018-12-23T11:02:27.566Z,1012.05
2018-12-23T11:03:27.548Z,1012.01
2018-12-23T11:04:27.535Z,1012.02
2018-12-23T11:05:27.529Z,1011.96
2018-12-23T11:06:27.514Z,1012.02
2018-12-23T11:07:27.502Z,1012.03
2018-12-23T11:08:27.498Z,1011.99
2018-12-23T11:09:27.480Z,1011.99
2018-12-23T11:10:27.468Z,1012.01
2018-12-23T11:11:27.456Z,1011.98
2018-12-23T11:12:27.445Z,1011.94
2018-12-23T11:13:27.434Z,1011.95
2018-12-23T11:14:27.433Z,1011.91
2018-12-23T11:15:27.412Z,1011.90
2018-12-23T11:16:27.399Z,1011.91
2018-12-23T11:17:27.486Z,1011.90
2018-12-23T11:18:27.379Z,1011.85
2018-12-23T11:19:27.366Z,1011.90
2018-12-23T11:20:27.667Z,1011.90
2018-12-23T11:21:27.343Z,1011.96
2018-12-23T11:22:27.335Z,1011.85
2018-12-23T11:23:27.321Z,1011.83
2018-12-23T11:24:27.310Z,1011.84
2018-12-23T11:25:27.298Z,1011.78
2018-12-23T11:26:27.574Z,1011.81
2018-12-23T11:27:27.275Z,1011.82
2018-12-23T11:28:27.264Z,1011.82
2018-12-23T11:29:27.254Z,1011.79
2018-12-23T11:30:27.243Z,1011.77
2018-12-23T11:31:27.231Z,1011.70
2018-12-23T11:32:27.523Z,1011.76
2018-12-23T11:33:27.206Z,1011.75
2018-12-23T11:34:27.196Z,1011.76
2018-12-23T11:35:27.184Z,1011.75
2018-12-23T11:36:27.174Z,1011.74
2018-12-23T11:37:27.162Z,1011.72
2018-12-23T11:38:35.265Z,1011.73
2018-12-23T11:39:28.138Z,1011.72
2018-12-23T11:40:27.129Z,1011.72
2018-12-23T11:41:27.120Z,1011.77
2018-12-23T11:42:27.105Z,1011.73
2018-12-23T11:43:27.095Z,1011.75
2018-12-23T11:44:27.091Z,1011.74
2018-12-23T11:45:27.072Z,1011.74
2018-12-23T11:46:27.063Z,1011.74
2018-12-23T11:47:27.049Z,1011.68
2018-12-23T11:48:27.040Z,1011.66
2018-12-23T11:49:27.026Z,1011.61
2018-12-23T11:50:27.311Z,1011.60
2018-12-23T11:51:27.005Z,1011.57
2018-12-23T11:52:26.992Z,1011.58
2018-12-23T11:53:26.983Z,1011.58
2018-12-23T11:54:26.969Z,1011.56
2018-12-23T11:55:26.957Z,1011.58
2018-12-23T11:56:27.292Z,1011.55
2018-12-23T11:57:26.935Z,1011.54
2018-12-23T11:58:26.924Z,1011.53
2018-12-23T11:59:26.913Z,1011.48
2018-12-23T12:00:26.908Z,1011.49
2018-12-23T12:01:26.892Z,1011.43
2018-12-23T12:02:26.886Z,1011.43
2018-12-23T12:03:26.868Z,1011.39
2018-12-23T12:04:26.856Z,1011.41
2018-12-23T12:05:26.846Z,1011.38